createdAt,value
2022-12-18T00:00:29.254Z,99355.41
2022-12-18T00:01:36.319Z,99357.62
2022-12-18T00:02:39.264Z,99355.59
2022-12-18T00:03:43.920Z,99359.44
2022-12-18T00:04:47.343Z,99358.09
2022-12-18T00:05:53.626Z,99363.63
2022-12-18T00:06:56.692Z,99363.63
2022-12-18T00:07:59.977Z,99374.38
2022-12-18T00:09:05.384Z,99373.91
2022-12-18T00:10:09.263Z,99377.94
2022-12-18T00:11:14.614Z,99378.09
2022-12-18T00:13:21.187Z,99387.06
2022-12-18T00:14:24.191Z,99386.31
2022-12-18T00:15:27.080Z,99387.19
2022-12-18T00:16:32.162Z,99390.63
2022-12-18T00:17:35.157Z,99386.59
2022-12-18T00:18:38.661Z,99398.97
2022-12-18T00:19:41.814Z,99398.69
2022-12-18T00:20:44.681Z,99395.38
2022-12-18T00:21:47.754Z,99403.72
2022-12-18T00:22:50.610Z,99406.69
2022-12-18T00:23:53.991Z,99404.00
2022-12-18T00:24:56.807Z,99410.53
2022-12-18T00:26:05.513Z,99411.09
2022-12-18T00:27:08.587Z,99410.81
2022-12-18T00:28:11.813Z,99412.63
2022-12-18T00:29:15.560Z,99413.66
2022-12-18T00:30:18.550Z,99420.22
2022-12-18T00:31:25.227Z,99416.66
2022-12-18T00:32:28.170Z,99418.28
2022-12-18T00:33:31.562Z,99425.78
2022-12-18T00:34:34.471Z,99415.94
2022-12-18T00:35:37.407Z,99418.00
2022-12-18T00:36:41.970Z,99425.78
2022-12-18T00:37:45.164Z,99423.22
2022-12-18T00:38:48.970Z,99420.22
2022-12-18T00:39:51.809Z,99428.41
2022-12-18T00:40:54.691Z,99423.97
2022-12-18T00:42:16.088Z,99418.00
2022-12-18T00:43:19.111Z,99428.00
2022-12-18T00:44:22.033Z,99426.53
2022-12-18T00:45:26.758Z,99430.37
2022-12-18T00:46:29.777Z,99424.56
2022-12-18T00:47:32.755Z,99433.53
2022-12-18T00:48:35.755Z,99431.28
2022-12-18T00:49:38.769Z,99432.97
2022-12-18T00:50:41.832Z,99428.94
2022-12-18T00:51:45.073Z,99426.53
2022-12-18T00:52:48.122Z,99431.63
2022-12-18T00:53:51.357Z,99424.91
2022-12-18T00:54:54.216Z,99432.94
2022-12-18T00:55:57.213Z,99432.34
2022-12-18T00:57:00.684Z,99435.66
2022-12-18T00:58:03.701Z,99441.03
2022-12-18T00:59:06.613Z,99440.41
2022-12-18T01:00:14.159Z,99440.72
2022-12-18T01:01:18.257Z,99441.66
2022-12-18T01:02:21.591Z,99441.62
2022-12-18T01:03:24.732Z,99445.50
2022-12-18T01:04:27.847Z,99445.81
2022-12-18T01:05:30.946Z,99449.69
2022-12-18T01:06:34.189Z,99448.34
2022-12-18T01:07:37.256Z,99451.16
2022-12-18T01:08:40.664Z,99449.53
2022-12-18T01:09:43.632Z,99452.06
2022-12-18T01:10:46.693Z,99461.41
2022-12-18T01:11:49.930Z,99458.59
2022-12-18T01:12:53.338Z,99455.59
2022-12-18T01:13:56.449Z,99451.44
2022-12-18T01:14:59.559Z,99454.88
2022-12-18T01:16:02.465Z,99459.63
2022-12-18T01:17:06.147Z,99457.81
2022-12-18T01:18:09.299Z,99459.44
2022-12-18T01:19:12.416Z,99459.91
2022-12-18T01:20:15.546Z,99459.44
2022-12-18T01:21:18.435Z,99461.53
2022-12-18T01:22:21.463Z,99459.75
2022-12-18T01:23:24.554Z,99464.38
2022-12-18T01:24:27.474Z,99462.00
2022-12-18T01:25:30.513Z,99466.31
2022-12-18T01:26:34.020Z,99463.91
2022-12-18T01:27:37.013Z,99464.53
2022-12-18T01:28:41.097Z,99463.00
2022-12-18T01:29:44.255Z,99466.00
2022-12-18T01:30:47.113Z,99467.78
2022-12-18T01:31:50.600Z,99468.19
2022-12-18T01:32:53.473Z,99463.88
2022-12-18T01:33:57.561Z,99470.88
2022-12-18T01:35:00.459Z,99464.44
2022-12-18T01:36:03.783Z,99460.28
2022-12-18T01:37:07.187Z,99461.19
2022-12-18T01:38:10.517Z,99465.78
2022-12-18T01:39:15.117Z,99468.59
2022-12-18T01:40:18.259Z,99471.28
2022-12-18T01:41:25.858Z,99467.69
2022-12-18T01:42:28.823Z,99464.44
2022-12-18T01:43:51.720Z,99461.44
2022-12-18T01:45:13.062Z,99469.19
2022-12-18T01:46:16.435Z,99477.22
2022-12-18T01:47:31.792Z,99468.09
2022-12-18T01:48:34.959Z,99473.91
2022-12-18T01:49:37.824Z,99478.97
2022-12-18T01:50:44.316Z,99480.00
2022-12-18T01:51:47.479Z,99482.13
2022-12-18T01:52:57.053Z,99479.88
2022-12-18T01:54:00.851Z,99483.00
2022-12-18T01:55:06.400Z,99475.72
2022-12-18T01:56:13.081Z,99472.91
2022-12-18T01:57:16.507Z,99480.34
2022-12-18T01:58:21.406Z,99477.25
2022-12-18T01:59:24.483Z,99478.88
2022-12-18T02:00:28.530Z,99479.31
2022-12-18T02:01:34.292Z,99485.59
2022-12-18T02:02:37.794Z,99484.44
2022-12-18T02:03:44.216Z,99481.34
2022-12-18T02:04:49.550Z,99481.19
2022-12-18T02:06:02.617Z,99482.09
2022-12-18T02:07:24.701Z,99483.41
2022-12-18T02:08:47.696Z,99491.91
2022-12-18T02:10:31.179Z,99496.34
2022-12-18T02:11:52.507Z,99499.03
2022-12-18T02:13:08.656Z,99505.00
2022-12-18T02:14:24.514Z,99499.50
2022-12-18T02:15:47.677Z,99500.81
2022-12-18T02:17:05.280Z,99499.78
2022-12-18T02:18:22.818Z,99497.34
2022-12-18T02:19:46.189Z,99504.78
2022-12-18T02:21:29.863Z,99506.13
2022-12-18T02:23:10.151Z,99506.00
2022-12-18T02:24:28.860Z,99511.81
2022-12-18T02:26:07.702Z,99511.47
2022-12-18T02:27:12.121Z,99510.00
2022-12-18T02:28:19.906Z,99515.22
2022-12-18T02:29:31.119Z,99517.47
2022-12-18T02:30:37.383Z,99521.34
2022-12-18T02:31:46.763Z,99518.03
2022-12-18T02:32:53.749Z,99519.50
2022-12-18T02:34:00.282Z,99525.09
2022-12-18T02:35:06.925Z,99524.50
2022-12-18T02:36:13.765Z,99519.56
2022-12-18T02:37:20.304Z,99523.88
2022-12-18T02:38:26.517Z,99527.00
2022-12-18T02:39:32.187Z,99525.94
2022-12-18T02:40:37.431Z,99525.62
2022-12-18T02:41:40.960Z,99536.34
2022-12-18T02:42:44.165Z,99538.84
2022-12-18T02:43:51.031Z,99531.25
2022-12-18T02:44:53.935Z,99532.12
2022-12-18T02:46:02.529Z,99533.31
2022-12-18T02:47:05.631Z,99528.41
2022-12-18T02:48:09.442Z,99535.69
2022-12-18T02:49:38.184Z,99537.00
2022-12-18T02:50:49.997Z,99532.06
2022-12-18T02:52:06.881Z,99540.97
2022-12-18T02:53:40.076Z,99538.41
2022-12-18T02:54:57.505Z,99530.94
2022-12-18T02:56:06.746Z,99533.22
2022-12-18T02:57:59.885Z,99537.03
2022-12-18T02:59:07.560Z,99533.94
2022-12-18T03:00:24.441Z,99542.09
2022-12-18T03:01:35.219Z,99543.28
2022-12-18T03:02:50.411Z,99549.44
2022-12-18T03:03:56.814Z,99547.81
2022-12-18T03:05:17.962Z,99548.44
2022-12-18T03:06:31.940Z,99554.84
2022-12-18T03:07:59.321Z,99553.81
2022-12-18T03:09:17.369Z,99551.44
2022-12-18T03:10:27.481Z,99556.78
2022-12-18T03:11:58.135Z,99552.16
2022-12-18T03:13:16.338Z,99555.59
2022-12-18T03:14:23.183Z,99555.47
2022-12-18T03:15:32.424Z,99563.94
2022-12-18T03:16:37.331Z,99559.78
2022-12-18T03:17:46.123Z,99563.75
2022-12-18T03:18:55.347Z,99566.56
2022-12-18T03:20:03.638Z,99560.75
2022-12-18T03:21:11.373Z,99565.81
2022-12-18T03:22:16.911Z,99564.44
2022-12-18T03:23:26.686Z,99562.38
2022-12-18T03:24:32.758Z,99561.84
2022-12-18T03:25:42.078Z,99563.12
2022-12-18T03:26:48.119Z,99567.84
2022-12-18T03:27:58.051Z,99561.75
2022-12-18T03:29:39.610Z,99570.69
2022-12-18T03:30:45.691Z,99569.91
2022-12-18T03:31:57.229Z,99575.69
2022-12-18T03:33:14.648Z,99575.88
2022-12-18T03:34:25.172Z,99586.78
2022-12-18T03:35:33.969Z,99585.28
2022-12-18T03:36:37.141Z,99587.16
2022-12-18T03:37:40.420Z,99586.09
2022-12-18T03:38:43.820Z,99597.25
2022-12-18T03:39:46.835Z,99596.47
2022-12-18T03:41:27.550Z,99595.72
2022-12-18T03:42:52.767Z,99600.22
2022-12-18T03:44:21.152Z,99602.91
2022-12-18T03:45:35.855Z,99596.06
2022-12-18T03:47:07.630Z,99593.69
2022-12-18T03:48:33.159Z,99591.75
2022-12-18T03:49:46.354Z,99602.78
2022-12-18T03:51:06.573Z,99604.59
2022-12-18T03:52:25.628Z,99604.16
2022-12-18T03:53:50.379Z,99607.25
2022-12-18T03:54:56.349Z,99600.13
2022-12-18T03:56:02.177Z,99606.63
2022-12-18T03:57:16.371Z,99601.84
2022-12-18T03:58:25.023Z,99603.56
2022-12-18T03:59:30.330Z,99599.41
2022-12-18T04:00:34.366Z,99604.16
2022-12-18T04:01:43.213Z,99613.06
2022-12-18T04:02:53.618Z,99608.00
2022-12-18T04:03:58.111Z,99619.34
2022-12-18T04:05:06.270Z,99612.03
2022-12-18T04:06:10.195Z,99618.13
2022-12-18T04:07:14.722Z,99618.03
2022-12-18T04:08:18.153Z,99620.06
2022-12-18T04:09:22.363Z,99622.88
2022-12-18T04:10:25.700Z,99616.03
2022-12-18T04:11:28.799Z,99620.53
2022-12-18T04:12:31.962Z,99627.06
2022-12-18T04:13:37.721Z,99621.28
2022-12-18T04:14:41.161Z,99622.56
2022-12-18T04:15:43.985Z,99624.59
2022-12-18T04:16:47.006Z,99614.03
2022-12-18T04:17:51.148Z,99617.12
2022-12-18T04:18:55.158Z,99617.12
2022-12-18T04:19:58.115Z,99618.66
2022-12-18T04:21:01.097Z,99615.62
2022-12-18T04:22:04.172Z,99626.22
2022-12-18T04:23:07.300Z,99631.28
2022-12-18T04:24:10.203Z,99629.00
2022-12-18T04:25:14.058Z,99618.00
2022-12-18T04:26:17.104Z,99631.81
2022-12-18T04:27:21.019Z,99631.06
2022-12-18T04:28:24.240Z,99627.22
2022-12-18T04:29:27.269Z,99630.63
2022-12-18T04:30:30.202Z,99627.63
2022-12-18T04:31:33.239Z,99621.22
2022-12-18T04:32:36.771Z,99626.56
2022-12-18T04:33:40.133Z,99630.00
2022-12-18T04:34:43.295Z,99636.44
2022-12-18T04:35:46.339Z,99644.88
2022-12-18T04:36:49.420Z,99631.19
2022-12-18T04:37:52.398Z,99638.03
2022-12-18T04:38:55.443Z,99641.00
2022-12-18T04:39:58.386Z,99639.50
2022-12-18T04:41:01.310Z,99643.69
2022-12-18T04:42:04.303Z,99639.41
2022-12-18T04:43:07.256Z,99644.66
2022-12-18T04:44:10.269Z,99639.31
2022-12-18T04:45:13.269Z,99643.78
2022-12-18T04:46:16.241Z,99654.91
2022-12-18T04:47:19.488Z,99651.91
2022-12-18T04:48:22.612Z,99654.28
2022-12-18T04:49:25.804Z,99656.00
2022-12-18T04:50:29.292Z,99659.22
2022-12-18T04:51:32.311Z,99654.41
2022-12-18T04:52:35.321Z,99660.94
2022-12-18T04:53:38.593Z,99658.25
2022-12-18T04:54:41.794Z,99655.69
2022-12-18T04:55:44.839Z,99665.22
2022-12-18T04:56:48.418Z,99662.97
2022-12-18T04:57:51.416Z,99669.19
2022-12-18T04:58:54.520Z,99664.47
2022-12-18T04:59:57.519Z,99674.31
2022-12-18T05:01:00.604Z,99673.56
2022-12-18T05:02:03.661Z,99673.56
2022-12-18T05:03:06.684Z,99670.47
2022-12-18T05:04:09.995Z,99672.59
2022-12-18T05:05:13.043Z,99679.13
2022-12-18T05:06:16.256Z,99676.88
2022-12-18T05:07:19.335Z,99675.06
2022-12-18T05:08:22.618Z,99676.34
2022-12-18T05:09:25.699Z,99679.16
2022-12-18T05:10:31.223Z,99674.19
2022-12-18T05:11:39.218Z,99683.84
2022-12-18T05:13:00.071Z,99672.06
2022-12-18T05:14:04.700Z,99679.78
2022-12-18T05:15:08.331Z,99680.22
2022-12-18T05:16:12.111Z,99673.59
2022-12-18T05:17:15.402Z,99680.72
2022-12-18T05:18:18.532Z,99676.66
2022-12-18T05:19:21.531Z,99675.91
2022-12-18T05:20:24.916Z,99676.34
2022-12-18T05:21:27.934Z,99683.41
2022-12-18T05:22:30.886Z,99686.09
2022-12-18T05:23:37.937Z,99684.50
2022-12-18T05:24:41.112Z,99683.72
2022-12-18T05:25:49.703Z,99686.09
2022-12-18T05:26:53.140Z,99684.59
2022-12-18T05:27:56.097Z,99684.91
2022-12-18T05:28:59.731Z,99688.75
2022-12-18T05:30:02.612Z,99691.75
2022-12-18T05:31:06.190Z,99691.75
2022-12-18T05:32:09.143Z,99693.25
2022-12-18T05:33:12.373Z,99690.91
2022-12-18T05:34:15.500Z,99692.50
2022-12-18T05:35:18.683Z,99691.00
2022-12-18T05:36:21.819Z,99692.38
2022-12-18T05:37:24.854Z,99697.31
2022-12-18T05:38:28.668Z,99690.34
2022-12-18T05:39:31.936Z,99699.44
2022-12-18T05:40:34.761Z,99703.28
2022-12-18T05:41:37.716Z,99701.38
2022-12-18T05:42:40.860Z,99701.56
2022-12-18T05:43:44.724Z,99702.53
2022-12-18T05:44:47.737Z,99710.69
2022-12-18T05:45:51.401Z,99703.72
2022-12-18T05:46:54.621Z,99705.00
2022-12-18T05:47:57.645Z,99714.66
2022-12-18T05:49:02.431Z,99711.13
2022-12-18T05:50:06.032Z,99709.19
2022-12-18T05:51:11.742Z,99712.19
2022-12-18T05:52:14.751Z,99714.22
2022-12-18T05:53:20.628Z,99712.41
2022-12-18T05:54:23.500Z,99709.53
2022-12-18T05:55:27.441Z,99712.50
2022-12-18T05:56:30.355Z,99712.19
2022-12-18T05:57:33.579Z,99713.16
2022-12-18T05:58:37.021Z,99712.72
2022-12-18T05:59:40.067Z,99714.75
2022-12-18T06:00:46.349Z,99712.50
2022-12-18T06:01:49.815Z,99716.78
2022-12-18T06:02:52.991Z,99714.13
2022-12-18T06:03:56.996Z,99714.13
2022-12-18T06:04:59.905Z,99721.91
2022-12-18T06:06:03.418Z,99725.34
2022-12-18T06:07:06.580Z,99717.75
2022-12-18T06:08:10.296Z,99724.28
2022-12-18T06:09:13.415Z,99719.16
2022-12-18T06:10:16.574Z,99723.62
2022-12-18T06:11:23.106Z,99718.28
2022-12-18T06:12:26.143Z,99721.38
2022-12-18T06:13:29.138Z,99720.66
2022-12-18T06:14:31.936Z,99720.94
2022-12-18T06:15:38.217Z,99726.63
2022-12-18T06:16:41.618Z,99725.25
2022-12-18T06:17:44.581Z,99728.44
2022-12-18T06:18:48.163Z,99727.37
2022-12-18T06:19:51.155Z,99724.28
2022-12-18T06:20:58.249Z,99729.19
2022-12-18T06:22:01.103Z,99728.44
2022-12-18T06:23:04.732Z,99723.41
2022-12-18T06:24:07.958Z,99732.09
2022-12-18T06:25:10.998Z,99731.75
2022-12-18T06:26:14.897Z,99731.44
2022-12-18T06:27:18.161Z,99746.00
2022-12-18T06:28:21.097Z,99743.75
2022-12-18T06:29:27.100Z,99744.16
2022-12-18T06:30:30.044Z,99750.25
2022-12-18T06:31:33.181Z,99746.53
2022-12-18T06:32:36.294Z,99746.84
2022-12-18T06:33:40.420Z,99750.69
2022-12-18T06:34:43.614Z,99748.38
2022-12-18T06:35:47.097Z,99752.84
2022-12-18T06:36:50.375Z,99763.84
2022-12-18T06:37:53.486Z,99758.94
2022-12-18T06:38:58.534Z,99763.53
2022-12-18T06:40:02.289Z,99765.91
2022-12-18T06:41:13.604Z,99772.00
2022-12-18T06:42:16.562Z,99765.25
2022-12-18T06:43:19.671Z,99769.97
2022-12-18T06:44:22.947Z,99774.16
2022-12-18T06:45:26.100Z,99769.84
2022-12-18T06:46:29.375Z,99773.91
2022-12-18T06:47:32.479Z,99777.03
2022-12-18T06:48:35.970Z,99773.63
2022-12-18T06:49:38.910Z,99777.44
2022-12-18T06:50:44.478Z,99767.19
2022-12-18T06:51:47.808Z,99769.84
2022-12-18T06:52:51.813Z,99769.09
2022-12-18T06:53:54.682Z,99785.47
2022-12-18T06:54:57.695Z,99775.94
2022-12-18T06:56:09.489Z,99774.03
2022-12-18T06:57:13.500Z,99782.25
2022-12-18T06:58:16.726Z,99778.44
2022-12-18T06:59:19.715Z,99785.38
2022-12-18T07:00:22.769Z,99791.16
2022-12-18T07:01:26.157Z,99794.56
2022-12-18T07:02:29.458Z,99793.72
2022-12-18T07:03:32.562Z,99789.44
2022-12-18T07:04:35.494Z,99797.47
2022-12-18T07:05:42.379Z,99789.88
2022-12-18T07:06:45.300Z,99800.59
2022-12-18T07:07:48.295Z,99793.63
2022-12-18T07:08:52.492Z,99806.56
2022-12-18T07:09:55.896Z,99803.34
2022-12-18T07:10:58.897Z,99803.13
2022-12-18T07:12:01.893Z,99806.97
2022-12-18T07:13:04.887Z,99804.72
2022-12-18T07:14:07.714Z,99803.13
2022-12-18T07:15:11.231Z,99808.34
2022-12-18T07:16:24.779Z,99812.53
2022-12-18T07:17:28.611Z,99810.72
2022-12-18T07:18:31.642Z,99806.56
2022-12-18T07:19:35.578Z,99816.16
2022-12-18T07:20:38.825Z,99816.16
2022-12-18T07:21:46.411Z,99815.31
2022-12-18T07:22:54.733Z,99816.81
2022-12-18T07:23:59.076Z,99822.16
2022-12-18T07:25:02.037Z,99825.91
2022-12-18T07:26:10.232Z,99822.06
2022-12-18T07:27:13.243Z,99829.66
2022-12-18T07:28:17.638Z,99836.50
2022-12-18T07:29:21.029Z,99837.25
2022-12-18T07:30:23.940Z,99833.41
2022-12-18T07:31:28.377Z,99844.00
2022-12-18T07:32:31.863Z,99839.31
2022-12-18T07:33:35.707Z,99845.41
2022-12-18T07:34:38.700Z,99848.09
2022-12-18T07:35:41.574Z,99847.66
2022-12-18T07:36:44.860Z,99848.84
2022-12-18T07:37:48.020Z,99855.25
2022-12-18T07:38:52.819Z,99849.03
2022-12-18T07:39:56.020Z,99844.34
2022-12-18T07:41:06.529Z,99850.00
2022-12-18T07:42:28.210Z,99852.38
2022-12-18T07:43:31.216Z,99856.09
2022-12-18T07:44:34.455Z,99858.34
2022-12-18T07:45:37.634Z,99858.78
2022-12-18T07:46:41.291Z,99858.78
2022-12-18T07:47:44.477Z,99859.44
2022-12-18T07:48:50.000Z,99866.50
2022-12-18T07:49:53.336Z,99866.06
2022-12-18T07:51:03.962Z,99859.84
2022-12-18T07:52:06.937Z,99862.84
2022-12-18T07:53:10.252Z,99869.28
2022-12-18T07:54:13.123Z,99869.59
2022-12-18T07:55:16.276Z,99875.25
2022-12-18T07:56:28.640Z,99874.72
2022-12-18T07:58:56.646Z,99876.84
2022-12-18T07:59:59.589Z,99878.25
2022-12-18T08:01:10.924Z,99874.72
2022-12-18T08:02:14.643Z,99883.06
2022-12-18T08:03:17.933Z,99884.09
2022-12-18T08:04:20.771Z,99886.37
2022-12-18T08:05:23.868Z,99889.38
2022-12-18T08:06:27.026Z,99893.87
2022-12-18T08:07:30.517Z,99890.00
2022-12-18T08:08:35.687Z,99887.63
2022-12-18T08:09:38.581Z,99894.37
2022-12-18T08:10:41.347Z,99898.44
2022-12-18T08:11:44.976Z,99891.47
2022-12-18T08:12:52.067Z,99897.56
2022-12-18T08:13:55.240Z,99900.16
2022-12-18T08:14:58.285Z,99902.59
2022-12-18T08:16:04.451Z,99897.41
2022-12-18T08:17:07.420Z,99894.94
2022-12-18T08:18:14.250Z,99905.56
2022-12-18T08:19:17.414Z,99906.19
2022-12-18T08:20:20.422Z,99901.00
2022-12-18T08:21:27.434Z,99903.44
2022-12-18T08:22:30.484Z,99902.59
2022-12-18T08:23:35.938Z,99909.19
2022-12-18T08:24:42.414Z,99909.06
2022-12-18T08:25:45.395Z,99909.37
2022-12-18T08:27:06.777Z,99902.81
2022-12-18T08:28:11.731Z,99911.50
2022-12-18T08:29:19.960Z,99909.75
2022-12-18T08:30:24.674Z,99909.19
2022-12-18T08:31:29.663Z,99912.19
2022-12-18T08:32:34.207Z,99912.38
2022-12-18T08:33:39.208Z,99913.00
2022-12-18T08:34:42.443Z,99913.28
2022-12-18T08:35:46.171Z,99921.22
2022-12-18T08:36:49.203Z,99918.53
2022-12-18T08:37:52.302Z,99921.84
2022-12-18T08:38:55.635Z,99915.19
2022-12-18T08:39:58.670Z,99921.78
2022-12-18T08:41:08.033Z,99922.84
2022-12-18T08:42:30.031Z,99932.37
2022-12-18T08:43:51.571Z,99916.87
2022-12-18T08:44:54.480Z,99921.56
2022-12-18T08:45:58.279Z,99918.28
2022-12-18T08:47:01.230Z,99927.72
2022-12-18T08:48:04.522Z,99923.72
2022-12-18T08:49:09.005Z,99922.69
2022-12-18T08:50:13.535Z,99927.91
2022-12-18T08:51:21.111Z,99921.66
2022-12-18T08:52:24.134Z,99926.00
2022-12-18T08:53:34.068Z,99924.25
2022-12-18T08:54:38.424Z,99924.09
2022-12-18T08:55:45.729Z,99920.50
2022-12-18T08:56:52.040Z,99926.50
2022-12-18T08:57:55.382Z,99922.03
2022-12-18T08:58:58.964Z,99926.09
2022-12-18T09:00:02.569Z,99927.44
2022-12-18T09:01:08.192Z,99930.00
2022-12-18T09:02:13.172Z,99927.91
2022-12-18T09:03:20.516Z,99919.84
2022-12-18T09:04:24.054Z,99927.78
2022-12-18T09:05:27.177Z,99938.69
2022-12-18T09:06:30.760Z,99934.06
2022-12-18T09:07:33.984Z,99936.28
2022-12-18T09:08:38.297Z,99939.59
2022-12-18T09:09:41.909Z,99933.00
2022-12-18T09:10:46.349Z,99937.50
2022-12-18T09:11:49.729Z,99941.09
2022-12-18T09:12:52.632Z,99948.59
2022-12-18T09:13:56.869Z,99950.34
2022-12-18T09:15:00.588Z,99952.16
2022-12-18T09:16:04.639Z,99948.28
2022-12-18T09:17:07.775Z,99959.66
2022-12-18T09:18:11.161Z,99953.34
2022-12-18T09:19:14.556Z,99953.22
2022-12-18T09:20:17.992Z,99954.56
2022-12-18T09:21:22.095Z,99947.37
2022-12-18T09:22:25.002Z,99947.41
2022-12-18T09:23:27.849Z,99935.25
2022-12-18T09:24:30.727Z,99946.03
2022-12-18T09:25:36.954Z,99943.94
2022-12-18T09:26:39.863Z,99943.47
2022-12-18T09:27:43.209Z,99941.84
2022-12-18T09:28:46.193Z,99949.78
2022-12-18T09:29:49.177Z,99947.37
2022-12-18T09:30:52.278Z,99950.66
2022-12-18T09:31:55.429Z,99950.50
2022-12-18T09:32:58.471Z,99950.63
2022-12-18T09:34:01.515Z,99951.22
2022-12-18T09:35:04.841Z,99944.03
2022-12-18T09:36:10.434Z,99947.91
2022-12-18T09:37:13.431Z,99951.50
2022-12-18T09:38:19.750Z,99939.34
2022-12-18T09:39:24.121Z,99946.66
2022-12-18T09:40:34.910Z,99940.22
2022-12-18T09:41:45.776Z,99946.50
2022-12-18T09:42:58.944Z,99944.38
2022-12-18T09:44:26.195Z,99948.13
2022-12-18T09:45:31.684Z,99949.25
2022-12-18T09:46:42.100Z,99950.44
2022-12-18T09:47:48.591Z,99958.06
2022-12-18T09:48:54.089Z,99951.31
2022-12-18T09:50:02.422Z,99950.28
2022-12-18T09:51:14.882Z,99952.53
2022-12-18T09:52:43.623Z,99952.53
2022-12-18T09:53:54.953Z,99949.81
2022-12-18T09:55:26.152Z,99939.31
2022-12-18T09:56:34.135Z,99947.72
2022-12-18T09:57:43.495Z,99948.47
2022-12-18T09:58:59.868Z,99948.47
2022-12-18T10:00:21.004Z,99947.72
2022-12-18T10:01:25.149Z,99942.84
2022-12-18T10:02:32.714Z,99942.81
2022-12-18T10:03:35.727Z,99950.16
2022-12-18T10:04:38.615Z,99952.06
2022-12-18T10:05:50.439Z,99953.13
2022-12-18T10:07:09.607Z,99952.84
2022-12-18T10:08:26.709Z,99948.81
2022-12-18T10:10:09.063Z,99944.28
2022-12-18T10:11:41.618Z,99938.72
2022-12-18T10:13:04.549Z,99945.44
2022-12-18T10:14:30.620Z,99946.25
2022-12-18T10:15:41.832Z,99949.56
2022-12-18T10:16:55.880Z,99953.88
2022-12-18T10:18:22.172Z,99959.56
2022-12-18T10:19:51.161Z,99948.31
2022-12-18T10:21:00.230Z,99952.78
2022-12-18T10:22:34.039Z,99955.03
2022-12-18T10:23:55.250Z,99959.69
2022-12-18T10:25:01.264Z,99948.88
2022-12-18T10:26:10.702Z,99952.59
2022-12-18T10:27:17.622Z,99939.84
2022-12-18T10:28:21.703Z,99945.56
2022-12-18T10:29:26.781Z,99952.88
2022-12-18T10:30:29.854Z,99943.59
2022-12-18T10:31:33.712Z,99942.38
2022-12-18T10:32:36.827Z,99944.34
2022-12-18T10:33:39.837Z,99943.13
2022-12-18T10:34:43.020Z,99940.69
2022-12-18T10:35:48.484Z,99943.50
2022-12-18T10:36:51.391Z,99952.28
2022-12-18T10:38:02.061Z,99954.63
2022-12-18T10:39:23.436Z,99955.09
2022-12-18T10:40:26.519Z,99958.28
2022-12-18T10:41:29.730Z,99945.97
2022-12-18T10:42:32.872Z,99949.69
2022-12-18T10:43:37.738Z,99955.66
2022-12-18T10:44:40.796Z,99945.63
2022-12-18T10:46:07.196Z,99951.28
2022-12-18T10:47:17.213Z,99955.50
2022-12-18T10:48:22.378Z,99955.91
2022-12-18T10:49:29.234Z,99952.06
2022-12-18T10:51:09.771Z,99949.53
2022-12-18T10:52:28.772Z,99951.16
2022-12-18T10:53:34.271Z,99957.56
2022-12-18T10:54:38.188Z,99957.75
2022-12-18T10:55:45.727Z,99956.75
2022-12-18T10:56:49.001Z,99954.59
2022-12-18T10:57:52.430Z,99952.53
2022-12-18T10:59:05.928Z,99948.91
2022-12-18T11:00:37.068Z,99955.53
2022-12-18T11:01:57.416Z,99948.91
2022-12-18T11:03:00.575Z,99945.28
2022-12-18T11:04:10.230Z,99942.94
2022-12-18T11:05:29.063Z,99948.44
2022-12-18T11:06:32.093Z,99937.06
2022-12-18T11:07:55.589Z,99942.38
2022-12-18T11:09:12.198Z,99937.72
2022-12-18T11:10:19.855Z,99942.69
2022-12-18T11:11:24.988Z,99937.28
2022-12-18T11:12:29.895Z,99939.78
2022-12-18T11:13:33.300Z,99937.81
2022-12-18T11:14:49.578Z,99934.38
2022-12-18T11:15:53.049Z,99937.63
2022-12-18T11:18:36.285Z,99932.97
2022-12-18T11:19:42.536Z,99930.63
2022-12-18T11:20:58.181Z,99933.31
2022-12-18T11:22:04.851Z,99931.19
2022-12-18T11:23:14.831Z,99933.09
2022-12-18T11:24:29.610Z,99933.19
2022-12-18T11:25:35.628Z,99934.06
2022-12-18T11:26:40.948Z,99931.81
2022-12-18T11:27:53.415Z,99940.69
2022-12-18T11:29:25.119Z,99932.84
2022-12-18T11:30:31.469Z,99933.31
2022-12-18T11:31:34.986Z,99934.78
2022-12-18T11:32:42.210Z,99934.88
2022-12-18T11:34:28.120Z,99931.50
2022-12-18T11:35:39.664Z,99934.78
2022-12-18T11:36:49.670Z,99930.09
2022-12-18T11:38:00.831Z,99932.59
2022-12-18T11:39:14.019Z,99921.03
2022-12-18T11:40:24.108Z,99936.25
2022-12-18T11:41:53.286Z,99933.00
2022-12-18T11:43:03.785Z,99931.03
2022-12-18T11:44:11.233Z,99928.75
2022-12-18T11:45:14.347Z,99926.53
2022-12-18T11:46:39.393Z,99924.09
2022-12-18T11:48:07.430Z,99914.22
2022-12-18T11:49:21.630Z,99919.44
2022-12-18T11:50:33.997Z,99907.66
2022-12-18T11:51:44.798Z,99917.72
2022-12-18T11:52:51.492Z,99905.44
2022-12-18T11:53:57.360Z,99919.97
2022-12-18T11:55:03.352Z,99910.50
2022-12-18T11:56:16.664Z,99922.44
2022-12-18T11:57:57.340Z,99910.66
2022-12-18T11:59:34.041Z,99914.50
2022-12-18T12:00:44.876Z,99909.63
2022-12-18T12:02:23.493Z,99913.75
2022-12-18T12:03:52.783Z,99912.81
2022-12-18T12:05:01.360Z,99909.09
2022-12-18T12:06:23.935Z,99913.09
2022-12-18T12:07:47.217Z,99906.84
2022-12-18T12:08:52.960Z,99911.81
2022-12-18T12:10:15.402Z,99912.13
2022-12-18T12:11:29.026Z,99910.91
2022-12-18T12:13:00.708Z,99906.16
2022-12-18T12:14:18.656Z,99906.22
2022-12-18T12:15:39.103Z,99900.75
2022-12-18T12:17:07.137Z,99899.56
2022-12-18T12:18:19.227Z,99906.28
2022-12-18T12:19:57.547Z,99905.78
2022-12-18T12:21:03.547Z,99910.78
2022-12-18T12:22:30.855Z,99901.44
2022-12-18T12:23:57.666Z,99900.94
2022-12-18T12:25:20.800Z,99901.13
2022-12-18T12:26:34.939Z,99902.19
2022-12-18T12:27:49.696Z,99908.16
2022-12-18T12:29:10.468Z,99912.59
2022-12-18T12:30:26.340Z,99908.22
2022-12-18T12:31:57.267Z,99908.34
2022-12-18T12:33:30.794Z,99910.81
2022-12-18T12:35:17.939Z,99916.44
2022-12-18T12:36:39.521Z,99917.66
2022-12-18T12:37:58.495Z,99907.50
2022-12-18T12:39:13.999Z,99904.53
2022-12-18T12:40:51.329Z,99906.97
2022-12-18T12:42:07.108Z,99910.47
2022-12-18T12:43:22.031Z,99921.16
2022-12-18T12:44:29.766Z,99916.00
2022-12-18T12:45:40.896Z,99920.62
2022-12-18T12:46:44.806Z,99923.81
2022-12-18T12:47:51.505Z,99930.97
2022-12-18T12:49:00.046Z,99917.53
2022-12-18T12:50:08.003Z,99920.84
2022-12-18T12:51:17.646Z,99928.22
2022-12-18T12:52:43.672Z,99928.44
2022-12-18T12:53:47.299Z,99935.88
2022-12-18T12:54:51.409Z,99943.69
2022-12-18T12:55:56.126Z,99945.66
2022-12-18T12:57:17.740Z,99944.28
2022-12-18T12:58:36.326Z,99948.00
2022-12-18T12:59:57.985Z,99940.59
2022-12-18T13:01:36.344Z,99943.00
2022-12-18T13:02:57.726Z,99944.50
2022-12-18T13:04:16.695Z,99944.69
2022-12-18T13:05:35.097Z,99952.09
2022-12-18T13:07:03.192Z,99951.09
2022-12-18T13:08:10.717Z,99950.13
2022-12-18T13:09:13.897Z,99945.59
2022-12-18T13:10:27.877Z,99953.41
2022-12-18T13:13:17.344Z,99955.16
2022-12-18T13:14:45.174Z,99955.97
2022-12-18T13:16:08.645Z,99959.34
2022-12-18T13:17:21.218Z,99962.81
2022-12-18T13:18:26.562Z,99957.88
2022-12-18T13:19:29.822Z,99961.56
2022-12-18T13:20:40.349Z,99960.03
2022-12-18T13:21:43.789Z,99961.06
2022-12-18T13:22:51.436Z,99964.25
2022-12-18T13:23:54.928Z,99966.69
2022-12-18T13:24:57.980Z,99972.78
2022-12-18T13:26:07.652Z,99973.53
2022-12-18T13:27:42.081Z,99969.06